Pagina principale
METAR-TAF:

METAR-TAF

Aeroporti :

Aeroporto di Genova-Sestri

Genova, Italia

latitudine: 44-25N, longitudine: 008-51E, altezza: 2 m

Osservazione

Il bollettino è stato emesso 37 minuti fa, alle 10:20 UTC
Vento 7 kt da est/sud-est
Temperature 18°C
Umidità 73%
Pressione 1025 hPa
Visibilità 10 km o più
Cielo coperto ad un'altezza di 2800 ft

METAR: LIMJ 311020Z 12007KT 9999 OVC028 18/13 Q1025

Ora: 11:57 (10:57 UTC)

Previsione

Il bollettino è stato emesso 5 ore e 57 minuti fa, alle 05:00 UTC
Previsione valida dal 31 alle 06 UTC al 01 alle 06 UTC
Vento 5 kt da direzioni variabili
Visibilità 10 km o più
Nuvoloso ad un'altezza di 2500 ft

TAF: LIMJ 310500Z 3106/0106 VRB05KT 9999 BKN025

Osservazioni e previsioni meteorologiche di più di 4000 aeroporti (messaggi METAR e TAF).

Le stazioni disponibili sono rappresentate dai dischi gialli e rossi sulla carta.

Puntare il mouse per vedere il nome della stazione.

Clicca sopra per visualizzare le osservazioni e previsioni meteorologiche.

Per cambiare la mappa : fare clic sui pulsanti verdi con una croce nera per ingrandire, il pulsante verde con un trattino per diminuire, o sulla freccia verde per le mappe adiacenti.


METAR-TAF: